createdAt,value
2023-04-18T02:10:26.098Z,94738.44
2023-04-18T02:12:53.117Z,94742.06
2023-04-18T03:17:24.575Z,94741.41
2023-04-18T03:19:52.841Z,94734.97
2023-04-18T03:22:23.918Z,94734.19
2023-04-18T03:24:53.797Z,94740.91
2023-04-18T05:17:56.665Z,94755.97
2023-04-18T05:20:30.812Z,94746.28
2023-04-18T05:22:57.347Z,94748.44
2023-04-18T05:25:24.076Z,94746.31
2023-04-18T05:27:50.462Z,94745.00
2023-04-18T05:30:16.867Z,94747.47
2023-04-18T05:32:43.350Z,94748.00
2023-04-18T05:35:09.905Z,94743.53
2023-04-18T05:37:36.286Z,94746.50
2023-04-18T05:40:06.924Z,94753.09
2023-04-18T05:42:33.302Z,94751.44
2023-04-18T05:45:00.823Z,94752.59
2023-04-18T05:47:27.274Z,94752.75
2023-04-18T05:49:53.676Z,94747.50
2023-04-18T05:52:20.186Z,94747.50
2023-04-18T05:54:46.733Z,94748.81
2023-04-18T05:57:13.249Z,94755.88
2023-04-18T05:59:40.000Z,94755.06
2023-04-18T06:02:06.530Z,94754.72
2023-04-18T06:04:35.492Z,94759.34
2023-04-18T06:07:02.013Z,94761.97
2023-04-18T06:09:28.654Z,94759.16
2023-04-18T06:11:55.177Z,94767.19
2023-04-18T06:14:21.890Z,94768.00
2023-04-18T06:16:48.413Z,94771.72
2023-04-18T06:19:21.888Z,94776.66
2023-04-18T06:21:48.731Z,94773.16
2023-04-18T06:24:15.691Z,94771.97
2023-04-18T06:26:42.666Z,94770.88
2023-04-18T06:42:36.218Z,94770.31
2023-04-18T06:45:03.142Z,94769.94
2023-04-18T06:47:30.004Z,94771.41
2023-04-18T06:49:56.405Z,94768.13
2023-04-18T06:52:22.788Z,94772.25
2023-04-18T06:54:49.370Z,94766.97
2023-04-18T06:57:15.857Z,94770.59
2023-04-18T06:59:42.214Z,94770.59
2023-04-18T07:02:08.604Z,94766.09
2023-04-18T07:04:34.982Z,94760.97
2023-04-18T07:07:01.336Z,94762.41
2023-04-18T07:09:27.674Z,94759.19
2023-04-18T07:11:54.052Z,94767.81
2023-04-18T07:14:20.389Z,94764.16
2023-04-18T07:16:46.815Z,94770.31
2023-04-18T07:19:13.272Z,94762.59
2023-04-18T07:21:41.982Z,94765.59
2023-04-18T07:24:08.329Z,94768.66
2023-04-18T07:26:34.707Z,94765.94
2023-04-18T07:29:01.191Z,94769.66
2023-04-18T07:31:27.790Z,94769.94
2023-04-18T07:33:54.321Z,94761.91
2023-04-18T07:36:21.744Z,94770.59
2023-04-18T10:04:37.125Z,94763.19
2023-04-18T10:07:03.618Z,94773.38
2023-04-18T10:09:33.815Z,94767.84
2023-04-18T10:12:05.009Z,94766.56
2023-04-18T10:14:32.100Z,94761.75
2023-04-18T10:16:59.548Z,94765.72
2023-04-18T10:19:26.080Z,94756.47
2023-04-18T10:21:52.671Z,94757.44
2023-04-18T10:24:19.459Z,94749.69
2023-04-18T10:26:46.356Z,94757.06
2023-04-18T10:29:13.295Z,94749.94
2023-04-18T10:31:40.463Z,94755.44
2023-04-18T10:34:07.001Z,94748.63
2023-04-18T10:36:36.063Z,94751.44
2023-04-18T10:39:02.474Z,94746.22
2023-04-18T10:41:32.339Z,94740.09
2023-04-18T10:43:58.983Z,94748.84
2023-04-18T10:46:32.502Z,94745.56
2023-04-18T10:49:00.182Z,94744.31
2023-04-18T10:51:30.440Z,94739.28
2023-04-18T10:53:56.871Z,94733.66
2023-04-18T10:56:25.882Z,94731.59
2023-04-18T10:59:10.782Z,94737.13
2023-04-18T11:01:44.858Z,94740.63
2023-04-18T11:04:12.370Z,94732.50
2023-04-18T11:06:44.039Z,94726.00
2023-04-18T11:09:10.513Z,94728.25
2023-04-18T11:11:37.342Z,94724.78
2023-04-18T11:14:03.876Z,94726.59
2023-04-18T11:16:30.347Z,94729.22
2023-04-18T11:18:57.128Z,94718.59
2023-04-18T11:21:24.571Z,94724.31
2023-04-18T11:23:52.290Z,94724.66
2023-04-18T11:26:20.661Z,94720.22
2023-04-18T11:28:47.526Z,94724.69
2023-04-18T11:31:13.967Z,94725.13
2023-04-18T11:33:43.395Z,94723.53
2023-04-18T11:36:12.038Z,94722.31
2023-04-18T11:38:39.553Z,94723.13
2023-04-18T11:41:06.405Z,94723.53
2023-04-18T11:43:33.916Z,94711.69
2023-04-18T11:46:03.964Z,94710.41
2023-04-18T11:48:30.468Z,94711.25
2023-04-18T11:50:56.891Z,94723.31
2023-04-18T11:53:24.195Z,94721.91
2023-04-18T11:55:55.797Z,94722.94
2023-04-18T11:58:25.472Z,94712.06
2023-04-18T12:00:52.187Z,94714.72
2023-04-18T12:03:21.491Z,94719.03
2023-04-18T12:05:48.456Z,94715.97
2023-04-18T14:31:21.836Z,94700.75
2023-04-18T14:33:48.257Z,94691.38
2023-04-18T14:36:14.867Z,94698.69
2023-04-18T14:38:41.595Z,94698.19
2023-04-18T14:41:08.070Z,94706.09
2023-04-18T14:43:34.463Z,94712.25
2023-04-18T14:46:01.018Z,94715.41
2023-04-18T14:48:28.087Z,94711.59
2023-04-18T14:50:54.432Z,94720.50
2023-04-18T14:53:20.866Z,94736.53
2023-04-18T14:55:47.417Z,94736.97
2023-04-18T14:58:13.754Z,94738.78
2023-04-18T15:00:40.115Z,94740.56
2023-04-18T15:03:08.327Z,94740.25
2023-04-18T15:05:36.950Z,94732.38
2023-04-18T15:08:03.345Z,94739.34
2023-04-18T15:10:29.695Z,94738.50
2023-04-18T15:12:56.231Z,94736.88
2023-04-18T15:15:22.671Z,94744.06
2023-04-18T15:17:49.056Z,94745.72
2023-04-18T15:20:15.407Z,94737.13
2023-04-18T15:22:41.762Z,94734.81
2023-04-18T15:25:08.519Z,94740.09
2023-04-18T15:27:34.956Z,94733.44
2023-04-18T15:30:01.350Z,94737.22
2023-04-18T15:32:28.032Z,94738.44
2023-04-18T15:34:54.534Z,94747.84
2023-04-18T15:37:20.926Z,94740.03
2023-04-18T15:39:47.336Z,94737.72
2023-04-18T15:42:13.793Z,94734.78
2023-04-18T15:44:40.195Z,94740.91
2023-04-18T15:47:06.645Z,94735.59
2023-04-18T15:49:34.430Z,94741.94
2023-04-18T15:52:01.140Z,94736.19
2023-04-18T15:54:27.768Z,94740.84
2023-04-18T15:56:54.231Z,94739.00
2023-04-18T15:59:20.629Z,94748.63
2023-04-18T16:01:47.061Z,94743.28
2023-04-18T16:04:15.458Z,94728.94
2023-04-18T16:06:42.298Z,94731.84
2023-04-18T16:09:08.962Z,94722.81
2023-04-18T16:11:35.304Z,94734.53
2023-04-18T16:14:02.063Z,94738.03
2023-04-18T16:16:28.799Z,94735.56
2023-04-18T16:18:55.234Z,94735.78
2023-04-18T16:21:21.574Z,94739.44
2023-04-18T16:23:48.017Z,94751.13
2023-04-18T16:26:14.415Z,94750.28
2023-04-18T16:28:40.798Z,94750.28
2023-04-18T16:31:07.211Z,94747.03
2023-04-18T16:33:33.681Z,94744.56
2023-04-18T16:36:00.129Z,94745.81
2023-04-18T16:38:26.477Z,94753.56
2023-04-18T16:40:53.196Z,94748.84
2023-04-18T16:43:19.587Z,94752.56
2023-04-18T16:45:45.982Z,94751.16
2023-04-18T16:48:12.468Z,94755.19
2023-04-18T16:50:39.046Z,94754.91
2023-04-18T16:53:06.190Z,94756.31
2023-04-18T16:55:32.724Z,94760.34
2023-04-18T16:57:59.386Z,94755.00
2023-04-18T17:00:25.771Z,94752.69
2023-04-18T17:02:52.150Z,94757.91
2023-04-18T17:05:18.677Z,94762.56
2023-04-18T17:07:45.112Z,94754.22
2023-04-18T17:10:11.494Z,94758.94
2023-04-18T17:12:37.852Z,94761.78
2023-04-18T17:15:04.268Z,94759.50
2023-04-18T17:17:30.765Z,94764.59
2023-04-18T17:19:57.586Z,94763.38
2023-04-18T17:22:23.980Z,94767.03
2023-04-18T17:24:50.357Z,94777.34
2023-04-18T17:27:16.694Z,94778.56
2023-04-18T17:29:43.156Z,94786.94
2023-04-18T17:32:09.591Z,94783.44
2023-04-18T17:34:36.055Z,94780.78
2023-04-18T17:37:02.518Z,94785.91
2023-04-18T17:39:30.972Z,94788.38
2023-04-18T17:41:57.458Z,94782.69
2023-04-18T17:44:25.888Z,94790.22
2023-04-18T17:46:52.311Z,94797.94
2023-04-18T17:49:18.833Z,94795.47
2023-04-18T17:51:45.477Z,94796.50
2023-04-18T17:54:12.001Z,94798.13
2023-04-18T17:56:39.425Z,94800.56
2023-04-18T17:59:06.033Z,94803.63
2023-04-18T18:01:32.836Z,94807.75
2023-04-18T18:04:00.265Z,94812.63
2023-04-18T18:06:26.817Z,94817.06
2023-04-18T18:08:53.172Z,94815.09
2023-04-18T18:11:19.544Z,94825.97
2023-04-18T18:13:45.943Z,94824.72
2023-04-18T18:16:12.324Z,94817.88
2023-04-18T18:18:38.728Z,94821.16
2023-04-18T18:21:05.380Z,94825.75
2023-04-18T18:23:31.769Z,94822.25
2023-04-18T18:25:58.402Z,94827.72
2023-04-18T18:28:25.322Z,94830.63
2023-04-18T18:30:51.831Z,94832.25
2023-04-18T18:33:18.454Z,94836.47
2023-04-18T18:35:47.123Z,94840.81
2023-04-18T18:38:13.894Z,94840.47
2023-04-18T18:40:40.495Z,94849.34
2023-04-18T18:43:07.546Z,94845.75
2023-04-18T18:45:34.396Z,94850.88
2023-04-18T18:48:03.356Z,94863.13
2023-04-18T18:50:29.807Z,94858.75
2023-04-18T18:52:56.166Z,94857.06
2023-04-18T18:55:22.542Z,94865.56
2023-04-18T18:57:50.969Z,94866.97
2023-04-18T19:00:17.652Z,94873.66
2023-04-18T19:02:44.158Z,94870.78
2023-04-18T19:05:10.928Z,94871.97
2023-04-18T19:07:39.919Z,94859.69
2023-04-18T19:10:09.779Z,94867.03
2023-04-18T19:12:36.435Z,94872.56
2023-04-18T19:15:03.829Z,94871.75
2023-04-18T19:17:30.811Z,94877.06
2023-04-18T19:19:57.304Z,94876.22
2023-04-18T19:22:27.202Z,94876.59
2023-04-18T19:24:53.594Z,94880.63
2023-04-18T19:27:20.081Z,94881.00
2023-04-18T19:29:50.776Z,94887.06
2023-04-18T19:32:17.196Z,94885.78
2023-04-18T19:34:43.576Z,94888.16
2023-04-18T19:37:12.609Z,94892.19
2023-04-18T19:39:39.518Z,94890.91
2023-04-18T19:42:05.899Z,94896.59
2023-04-18T19:44:32.373Z,94890.84
2023-04-18T19:46:58.789Z,94894.88
2023-04-18T19:49:25.236Z,94900.06
2023-04-18T19:51:51.638Z,94895.47
2023-04-18T19:54:19.699Z,94893.94
2023-04-18T19:56:48.991Z,94893.66
2023-04-18T19:59:15.789Z,94898.69
2023-04-18T20:01:45.181Z,94896.78
2023-04-18T20:04:12.410Z,94896.28
2023-04-18T20:06:39.163Z,94890.72
2023-04-18T20:09:05.554Z,94893.47
2023-04-18T20:11:32.380Z,94892.06
2023-04-18T20:13:59.274Z,94888.97
2023-04-18T20:16:25.733Z,94888.53
2023-04-18T20:18:54.292Z,94894.78
2023-04-18T20:21:22.494Z,94896.63
